sensor_id;sensor_type;location;lat;lon;timestamp;temperature;humidity
28460;DHT22;32528;45.712;9.192;2024-01-30T00:01:12;1.90;97.10
28460;DHT22;32528;45.712;9.192;2024-01-30T00:03:12;1.90;97.00
28460;DHT22;32528;45.712;9.192;2024-01-30T00:05:13;1.90;97.00
28460;DHT22;32528;45.712;9.192;2024-01-30T00:07:13;1.90;97.00
28460;DHT22;32528;45.712;9.192;2024-01-30T00:09:14;1.90;97.10
28460;DHT22;32528;45.712;9.192;2024-01-30T00:11:15;1.90;97.00
28460;DHT22;32528;45.712;9.192;2024-01-30T00:13:16;1.90;97.20
28460;DHT22;32528;45.712;9.192;2024-01-30T00:15:19;1.90;97.30
28460;DHT22;32528;45.712;9.192;2024-01-30T00:17:19;1.90;97.20
28460;DHT22;32528;45.712;9.192;2024-01-30T00:19:21;1.90;97.20
28460;DHT22;32528;45.712;9.192;2024-01-30T00:21:21;1.80;97.20
28460;DHT22;32528;45.712;9.192;2024-01-30T00:23:22;1.90;97.30
28460;DHT22;32528;45.712;9.192;2024-01-30T00:25:23;1.80;97.30
28460;DHT22;32528;45.712;9.192;2024-01-30T00:27:23;1.80;97.20
28460;DHT22;32528;45.712;9.192;2024-01-30T00:29:24;1.80;97.30
28460;DHT22;32528;45.712;9.192;2024-01-30T00:31:26;1.80;97.20
28460;DHT22;32528;45.712;9.192;2024-01-30T00:33:26;1.90;97.20
28460;DHT22;32528;45.712;9.192;2024-01-30T00:35:27;1.80;97.30
28460;DHT22;32528;45.712;9.192;2024-01-30T00:37:29;1.90;97.40
28460;DHT22;32528;45.712;9.192;2024-01-30T00:39:32;1.80;97.40
28460;DHT22;32528;45.712;9.192;2024-01-30T00:41:32;1.80;97.50
28460;DHT22;32528;45.712;9.192;2024-01-30T00:43:33;1.80;97.50
28460;DHT22;32528;45.712;9.192;2024-01-30T00:45:34;1.80;97.50
28460;DHT22;32528;45.712;9.192;2024-01-30T00:47:34;1.80;97.40
28460;DHT22;32528;45.712;9.192;2024-01-30T00:49:35;1.80;97.40
28460;DHT22;32528;45.712;9.192;2024-01-30T00:51:36;1.80;97.40
28460;DHT22;32528;45.712;9.192;2024-01-30T00:53:36;1.80;97.40
28460;DHT22;32528;45.712;9.192;2024-01-30T00:55:37;1.80;97.40
28460;DHT22;32528;45.712;9.192;2024-01-30T00:57:38;1.80;97.40
28460;DHT22;32528;45.712;9.192;2024-01-30T00:59:38;1.80;97.30
28460;DHT22;32528;45.712;9.192;2024-01-30T01:01:39;1.70;97.40
28460;DHT22;32528;45.712;9.192;2024-01-30T01:03:40;1.70;97.50
28460;DHT22;32528;45.712;9.192;2024-01-30T01:05:41;1.70;97.50
28460;DHT22;32528;45.712;9.192;2024-01-30T01:07:42;1.70;97.50
28460;DHT22;32528;45.712;9.192;2024-01-30T01:09:43;1.80;97.50
28460;DHT22;32528;45.712;9.192;2024-01-30T01:11:43;1.80;97.50
28460;DHT22;32528;45.712;9.192;2024-01-30T01:13:44;1.70;97.50
28460;DHT22;32528;45.712;9.192;2024-01-30T01:15:44;1.80;97.60
28460;DHT22;32528;45.712;9.192;2024-01-30T01:17:45;1.70;97.70
28460;DHT22;32528;45.712;9.192;2024-01-30T01:19:46;1.70;97.70
28460;DHT22;32528;45.712;9.192;2024-01-30T01:21:47;1.80;97.70
28460;DHT22;32528;45.712;9.192;2024-01-30T01:23:48;1.80;98.00
28460;DHT22;32528;45.712;9.192;2024-01-30T01:25:48;1.80;97.60
28460;DHT22;32528;45.712;9.192;2024-01-30T01:27:49;1.80;97.40
28460;DHT22;32528;45.712;9.192;2024-01-30T01:29:52;1.80;97.50
28460;DHT22;32528;45.712;9.192;2024-01-30T01:31:53;1.80;97.50
28460;DHT22;32528;45.712;9.192;2024-01-30T01:33:53;1.80;97.60
28460;DHT22;32528;45.712;9.192;2024-01-30T01:35:54;1.70;97.70
28460;DHT22;32528;45.712;9.192;2024-01-30T01:37:55;1.80;97.70
28460;DHT22;32528;45.712;9.192;2024-01-30T01:39:55;1.70;97.50
28460;DHT22;32528;45.712;9.192;2024-01-30T01:41:56;1.70;97.50
28460;DHT22;32528;45.712;9.192;2024-01-30T01:43:56;1.70;97.50
28460;DHT22;32528;45.712;9.192;2024-01-30T01:45:57;1.70;97.60
28460;DHT22;32528;45.712;9.192;2024-01-30T01:47:58;1.70;97.60
28460;DHT22;32528;45.712;9.192;2024-01-30T01:49:59;1.70;97.70
28460;DHT22;32528;45.712;9.192;2024-01-30T01:52:00;1.70;97.70
28460;DHT22;32528;45.712;9.192;2024-01-30T01:54:03;1.70;97.70
28460;DHT22;32528;45.712;9.192;2024-01-30T01:56:04;1.70;97.70
28460;DHT22;32528;45.712;9.192;2024-01-30T01:58:06;1.80;97.60
28460;DHT22;32528;45.712;9.192;2024-01-30T02:00:09;1.80;97.60
28460;DHT22;32528;45.712;9.192;2024-01-30T02:02:11;1.70;97.50
28460;DHT22;32528;45.712;9.192;2024-01-30T02:04:11;1.70;97.50
28460;DHT22;32528;45.712;9.192;2024-01-30T02:06:15;1.60;97.50
28460;DHT22;32528;45.712;9.192;2024-01-30T02:08:16;1.60;97.50
28460;DHT22;32528;45.712;9.192;2024-01-30T02:10:17;1.70;97.60
28460;DHT22;32528;45.712;9.192;2024-01-30T02:12:18;1.60;97.50
28460;DHT22;32528;45.712;9.192;2024-01-30T02:14:18;1.70;97.40
28460;DHT22;32528;45.712;9.192;2024-01-30T02:16:19;1.60;97.40
28460;DHT22;32528;45.712;9.192;2024-01-30T02:18:20;1.60;97.40
28460;DHT22;32528;45.712;9.192;2024-01-30T02:20:22;1.60;97.40
28460;DHT22;32528;45.712;9.192;2024-01-30T02:22:24;1.60;97.30
28460;DHT22;32528;45.712;9.192;2024-01-30T02:24:24;1.60;97.30
28460;DHT22;32528;45.712;9.192;2024-01-30T02:26:25;1.60;97.30
28460;DHT22;32528;45.712;9.192;2024-01-30T02:28:25;1.50;97.40
28460;DHT22;32528;45.712;9.192;2024-01-30T02:30:26;1.60;97.50
28460;DHT22;32528;45.712;9.192;2024-01-30T02:32:27;1.60;97.50
28460;DHT22;32528;45.712;9.192;2024-01-30T02:34:27;1.60;97.40
28460;DHT22;32528;45.712;9.192;2024-01-30T02:36:28;1.50;97.30
28460;DHT22;32528;45.712;9.192;2024-01-30T02:38:28;1.60;97.30
28460;DHT22;32528;45.712;9.192;2024-01-30T02:40:29;1.60;97.20
28460;DHT22;32528;45.712;9.192;2024-01-30T02:42:30;1.60;97.10
28460;DHT22;32528;45.712;9.192;2024-01-30T02:44:31;1.60;97.40
28460;DHT22;32528;45.712;9.192;2024-01-30T02:46:31;1.60;97.30
28460;DHT22;32528;45.712;9.192;2024-01-30T02:48:32;1.60;97.30
28460;DHT22;32528;45.712;9.192;2024-01-30T02:50:32;1.50;97.20
28460;DHT22;32528;45.712;9.192;2024-01-30T02:52:33;1.50;97.20
28460;DHT22;32528;45.712;9.192;2024-01-30T02:54:34;1.50;97.20
28460;DHT22;32528;45.712;9.192;2024-01-30T02:56:34;1.50;97.30
28460;DHT22;32528;45.712;9.192;2024-01-30T02:58:36;1.50;97.30
28460;DHT22;32528;45.712;9.192;2024-01-30T03:00:37;1.50;97.30
28460;DHT22;32528;45.712;9.192;2024-01-30T03:02:37;1.50;97.30
28460;DHT22;32528;45.712;9.192;2024-01-30T03:04:40;1.50;97.30
28460;DHT22;32528;45.712;9.192;2024-01-30T03:06:46;1.40;97.40
28460;DHT22;32528;45.712;9.192;2024-01-30T03:08:47;1.40;97.30
28460;DHT22;32528;45.712;9.192;2024-01-30T03:10:48;1.40;97.30
28460;DHT22;32528;45.712;9.192;2024-01-30T03:12:48;1.40;97.20
28460;DHT22;32528;45.712;9.192;2024-01-30T03:14:49;1.40;97.20
28460;DHT22;32528;45.712;9.192;2024-01-30T03:16:50;1.30;97.30
28460;DHT22;32528;45.712;9.192;2024-01-30T03:18:51;1.40;97.50
28460;DHT22;32528;45.712;9.192;2024-01-30T03:20:51;1.40;97.50
28460;DHT22;32528;45.712;9.192;2024-01-30T03:22:53;1.30;97.50
28460;DHT22;32528;45.712;9.192;2024-01-30T03:24:54;1.30;97.50
28460;DHT22;32528;45.712;9.192;2024-01-30T03:26:54;1.30;97.30
28460;DHT22;32528;45.712;9.192;2024-01-30T03:28:55;1.40;97.30
28460;DHT22;32528;45.712;9.192;2024-01-30T03:30:56;1.30;97.30
28460;DHT22;32528;45.712;9.192;2024-01-30T03:32:56;1.30;97.30
28460;DHT22;32528;45.712;9.192;2024-01-30T03:34:57;1.40;97.40
28460;DHT22;32528;45.712;9.192;2024-01-30T03:36:58;1.40;97.30
28460;DHT22;32528;45.712;9.192;2024-01-30T03:38:59;1.40;97.20
28460;DHT22;32528;45.712;9.192;2024-01-30T03:40:59;1.40;97.20
28460;DHT22;32528;45.712;9.192;2024-01-30T03:43:00;1.40;97.20
28460;DHT22;32528;45.712;9.192;2024-01-30T03:45:01;1.40;97.30
28460;DHT22;32528;45.712;9.192;2024-01-30T03:47:01;1.40;97.20
28460;DHT22;32528;45.712;9.192;2024-01-30T03:49:02;1.40;97.20
28460;DHT22;32528;45.712;9.192;2024-01-30T03:51:03;1.40;97.20
28460;DHT22;32528;45.712;9.192;2024-01-30T03:53:04;1.40;97.20
28460;DHT22;32528;45.712;9.192;2024-01-30T03:55:05;1.40;97.20
28460;DHT22;32528;45.712;9.192;2024-01-30T03:57:05;1.30;97.20
28460;DHT22;32528;45.712;9.192;2024-01-30T03:59:06;1.30;97.20
28460;DHT22;32528;45.712;9.192;2024-01-30T04:01:07;1.30;97.30
28460;DHT22;32528;45.712;9.192;2024-01-30T04:03:08;1.30;97.20
28460;DHT22;32528;45.712;9.192;2024-01-30T04:05:08;1.30;97.30
28460;DHT22;32528;45.712;9.192;2024-01-30T04:07:09;1.30;97.30
28460;DHT22;32528;45.712;9.192;2024-01-30T04:09:09;1.30;97.30
28460;DHT22;32528;45.712;9.192;2024-01-30T04:11:10;1.30;97.20
28460;DHT22;32528;45.712;9.192;2024-01-30T04:13:11;1.30;97.20
28460;DHT22;32528;45.712;9.192;2024-01-30T04:15:11;1.30;97.20
28460;DHT22;32528;45.712;9.192;2024-01-30T04:17:13;1.30;97.30
28460;DHT22;32528;45.712;9.192;2024-01-30T04:19:14;1.30;97.30
28460;DHT22;32528;45.712;9.192;2024-01-30T04:21:15;1.30;97.30
28460;DHT22;32528;45.712;9.192;2024-01-30T04:23:15;1.20;97.20
28460;DHT22;32528;45.712;9.192;2024-01-30T04:25:16;1.20;97.20
28460;DHT22;32528;45.712;9.192;2024-01-30T04:27:17;1.20;97.20
28460;DHT22;32528;45.712;9.192;2024-01-30T04:29:17;1.20;97.20
28460;DHT22;32528;45.712;9.192;2024-01-30T04:31:18;1.20;97.30
28460;DHT22;32528;45.712;9.192;2024-01-30T04:33:19;1.30;97.30
28460;DHT22;32528;45.712;9.192;2024-01-30T04:35:19;1.20;97.20
28460;DHT22;32528;45.712;9.192;2024-01-30T04:37:24;1.30;97.30
28460;DHT22;32528;45.712;9.192;2024-01-30T04:39:25;1.20;97.30
28460;DHT22;32528;45.712;9.192;2024-01-30T04:41:25;1.20;97.30
28460;DHT22;32528;45.712;9.192;2024-01-30T04:43:26;1.20;97.30
28460;DHT22;32528;45.712;9.192;2024-01-30T04:45:27;1.30;97.40
28460;DHT22;32528;45.712;9.192;2024-01-30T04:47:28;1.30;97.50
28460;DHT22;32528;45.712;9.192;2024-01-30T04:49:30;1.30;97.40
28460;DHT22;32528;45.712;9.192;2024-01-30T04:51:30;1.40;97.50
28460;DHT22;32528;45.712;9.192;2024-01-30T04:53:31;1.30;97.50
28460;DHT22;32528;45.712;9.192;2024-01-30T04:55:32;1.30;97.50
28460;DHT22;32528;45.712;9.192;2024-01-30T04:57:32;1.30;97.40
28460;DHT22;32528;45.712;9.192;2024-01-30T04:59:34;1.30;97.40
28460;DHT22;32528;45.712;9.192;2024-01-30T05:01:34;1.20;97.40
28460;DHT22;32528;45.712;9.192;2024-01-30T05:03:35;1.30;97.50
28460;DHT22;32528;45.712;9.192;2024-01-30T05:05:35;1.30;97.50
28460;DHT22;32528;45.712;9.192;2024-01-30T05:07:36;1.30;97.60
28460;DHT22;32528;45.712;9.192;2024-01-30T05:09:37;1.20;97.60
28460;DHT22;32528;45.712;9.192;2024-01-30T05:11:38;1.20;97.60
28460;DHT22;32528;45.712;9.192;2024-01-30T05:13:39;1.20;97.50
28460;DHT22;32528;45.712;9.192;2024-01-30T05:15:39;1.20;97.50
28460;DHT22;32528;45.712;9.192;2024-01-30T05:17:40;1.30;97.50
28460;DHT22;32528;45.712;9.192;2024-01-30T05:19:41;1.20;97.50
28460;DHT22;32528;45.712;9.192;2024-01-30T05:21:41;1.20;97.40
28460;DHT22;32528;45.712;9.192;2024-01-30T05:23:42;1.20;97.40
28460;DHT22;32528;45.712;9.192;2024-01-30T05:25:43;1.10;97.40
28460;DHT22;32528;45.712;9.192;2024-01-30T05:27:44;1.10;97.50
28460;DHT22;32528;45.712;9.192;2024-01-30T05:29:44;1.10;97.40
28460;DHT22;32528;45.712;9.192;2024-01-30T05:31:46;1.10;97.40
28460;DHT22;32528;45.712;9.192;2024-01-30T05:33:46;1.10;97.50
28460;DHT22;32528;45.712;9.192;2024-01-30T05:35:47;1.10;97.60
28460;DHT22;32528;45.712;9.192;2024-01-30T05:37:48;1.10;97.80
28460;DHT22;32528;45.712;9.192;2024-01-30T05:39:52;1.10;97.80
28460;DHT22;32528;45.712;9.192;2024-01-30T05:41:52;1.10;97.80
28460;DHT22;32528;45.712;9.192;2024-01-30T05:43:53;1.10;97.70
28460;DHT22;32528;45.712;9.192;2024-01-30T05:45:53;1.10;97.80
28460;DHT22;32528;45.712;9.192;2024-01-30T05:47:54;1.20;97.80
28460;DHT22;32528;45.712;9.192;2024-01-30T05:49:55;1.20;97.80
28460;DHT22;32528;45.712;9.192;2024-01-30T05:51:55;1.10;97.80
28460;DHT22;32528;45.712;9.192;2024-01-30T05:53:56;1.10;97.90
28460;DHT22;32528;45.712;9.192;2024-01-30T05:55:57;1.10;97.90
28460;DHT22;32528;45.712;9.192;2024-01-30T05:57:57;1.10;97.90
28460;DHT22;32528;45.712;9.192;2024-01-30T05:59:58;1.10;97.90
28460;DHT22;32528;45.712;9.192;2024-01-30T06:01:59;1.10;98.00
28460;DHT22;32528;45.712;9.192;2024-01-30T06:03:59;1.10;98.00
28460;DHT22;32528;45.712;9.192;2024-01-30T06:06:00;1.10;98.00
28460;DHT22;32528;45.712;9.192;2024-01-30T06:08:02;1.20;97.90
28460;DHT22;32528;45.712;9.192;2024-01-30T06:10:02;1.10;98.00
28460;DHT22;32528;45.712;9.192;2024-01-30T06:12:04;1.00;98.00
28460;DHT22;32528;45.712;9.192;2024-01-30T06:14:05;1.00;97.90
28460;DHT22;32528;45.712;9.192;2024-01-30T06:16:09;1.00;98.00
28460;DHT22;32528;45.712;9.192;2024-01-30T06:18:10;1.00;98.00
28460;DHT22;32528;45.712;9.192;2024-01-30T06:20:10;1.00;98.10
28460;DHT22;32528;45.712;9.192;2024-01-30T06:22:11;1.00;98.10
28460;DHT22;32528;45.712;9.192;2024-01-30T06:24:12;1.00;98.10
28460;DHT22;32528;45.712;9.192;2024-01-30T06:26:12;1.00;98.20
28460;DHT22;32528;45.712;9.192;2024-01-30T06:28:13;1.00;98.20
28460;DHT22;32528;45.712;9.192;2024-01-30T06:30:14;1.00;98.20
28460;DHT22;32528;45.712;9.192;2024-01-30T06:32:14;1.00;98.10
28460;DHT22;32528;45.712;9.192;2024-01-30T06:34:15;1.10;98.10
28460;DHT22;32528;45.712;9.192;2024-01-30T06:36:16;1.10;98.00
28460;DHT22;32528;45.712;9.192;2024-01-30T06:38:17;1.10;98.00
28460;DHT22;32528;45.712;9.192;2024-01-30T06:40:17;1.10;98.00
28460;DHT22;32528;45.712;9.192;2024-01-30T06:42:18;1.10;98.00
28460;DHT22;32528;45.712;9.192;2024-01-30T06:44:19;1.10;98.00
28460;DHT22;32528;45.712;9.192;2024-01-30T06:46:19;1.20;98.00
28460;DHT22;32528;45.712;9.192;2024-01-30T06:48:20;1.20;97.80
28460;DHT22;32528;45.712;9.192;2024-01-30T06:50:21;1.20;97.80
28460;DHT22;32528;45.712;9.192;2024-01-30T06:52:21;1.20;97.90
28460;DHT22;32528;45.712;9.192;2024-01-30T06:54:22;1.20;98.00
28460;DHT22;32528;45.712;9.192;2024-01-30T06:56:23;1.30;98.10
28460;DHT22;32528;45.712;9.192;2024-01-30T06:58:25;1.30;98.40
28460;DHT22;32528;45.712;9.192;2024-01-30T07:00:26;1.40;98.00
28460;DHT22;32528;45.712;9.192;2024-01-30T07:02:27;1.40;97.90
28460;DHT22;32528;45.712;9.192;2024-01-30T07:04:27;1.50;97.80
28460;DHT22;32528;45.712;9.192;2024-01-30T07:06:28;1.40;97.80
28460;DHT22;32528;45.712;9.192;2024-01-30T07:08:29;1.50;97.90
28460;DHT22;32528;45.712;9.192;2024-01-30T07:10:29;1.60;98.20
28460;DHT22;32528;45.712;9.192;2024-01-30T07:12:32;1.60;98.10
28460;DHT22;32528;45.712;9.192;2024-01-30T07:14:33;1.70;97.90
28460;DHT22;32528;45.712;9.192;2024-01-30T07:16:33;1.60;97.90
28460;DHT22;32528;45.712;9.192;2024-01-30T07:18:34;1.70;98.00
28460;DHT22;32528;45.712;9.192;2024-01-30T07:20:35;1.70;97.90
28460;DHT22;32528;45.712;9.192;2024-01-30T07:22:35;1.80;97.70
28460;DHT22;32528;45.712;9.192;2024-01-30T07:24:36;1.90;97.60
28460;DHT22;32528;45.712;9.192;2024-01-30T07:26:42;2.00;97.50
28460;DHT22;32528;45.712;9.192;2024-01-30T07:28:42;2.10;97.40
28460;DHT22;32528;45.712;9.192;2024-01-30T07:30:44;2.10;97.40
28460;DHT22;32528;45.712;9.192;2024-01-30T07:32:45;2.20;97.40
28460;DHT22;32528;45.712;9.192;2024-01-30T07:34:46;2.20;97.40
28460;DHT22;32528;45.712;9.192;2024-01-30T07:36:46;2.20;97.50
28460;DHT22;32528;45.712;9.192;2024-01-30T07:38:47;2.30;97.50
28460;DHT22;32528;45.712;9.192;2024-01-30T07:40:48;2.40;97.40
28460;DHT22;32528;45.712;9.192;2024-01-30T07:42:48;2.40;97.40
28460;DHT22;32528;45.712;9.192;2024-01-30T07:44:49;2.50;97.40
28460;DHT22;32528;45.712;9.192;2024-01-30T07:46:50;2.60;97.30
28460;DHT22;32528;45.712;9.192;2024-01-30T07:48:50;2.60;97.30
28460;DHT22;32528;45.712;9.192;2024-01-30T07:50:51;2.80;97.30
28460;DHT22;32528;45.712;9.192;2024-01-30T07:52:52;2.80;97.30
28460;DHT22;32528;45.712;9.192;2024-01-30T07:54:55;3.00;97.20
28460;DHT22;32528;45.712;9.192;2024-01-30T07:56:56;3.00;97.10
28460;DHT22;32528;45.712;9.192;2024-01-30T07:58:56;3.10;97.10
28460;DHT22;32528;45.712;9.192;2024-01-30T08:00:57;3.30;97.10
28460;DHT22;32528;45.712;9.192;2024-01-30T08:02:58;3.40;96.90
28460;DHT22;32528;45.712;9.192;2024-01-30T08:04:59;3.40;96.90
28460;DHT22;32528;45.712;9.192;2024-01-30T08:07:00;3.50;96.90
28460;DHT22;32528;45.712;9.192;2024-01-30T08:09:00;3.70;97.20
28460;DHT22;32528;45.712;9.192;2024-01-30T08:11:01;3.80;96.70
28460;DHT22;32528;45.712;9.192;2024-01-30T08:13:01;3.90;96.60
28460;DHT22;32528;45.712;9.192;2024-01-30T08:15:02;4.00;96.60
28460;DHT22;32528;45.712;9.192;2024-01-30T08:17:03;4.20;96.60
28460;DHT22;32528;45.712;9.192;2024-01-30T08:19:04;4.40;96.60
28460;DHT22;32528;45.712;9.192;2024-01-30T08:21:04;4.50;96.40
28460;DHT22;32528;45.712;9.192;2024-01-30T08:23:05;4.60;96.20
28460;DHT22;32528;45.712;9.192;2024-01-30T08:25:06;4.80;96.10
28460;DHT22;32528;45.712;9.192;2024-01-30T08:27:07;4.90;96.00
28460;DHT22;32528;45.712;9.192;2024-01-30T08:29:10;5.00;95.80
28460;DHT22;32528;45.712;9.192;2024-01-30T08:31:10;5.10;95.80
28460;DHT22;32528;45.712;9.192;2024-01-30T08:33:12;5.10;95.60
28460;DHT22;32528;45.712;9.192;2024-01-30T08:35:13;5.20;95.60
28460;DHT22;32528;45.712;9.192;2024-01-30T08:37:15;5.30;95.50
28460;DHT22;32528;45.712;9.192;2024-01-30T08:39:16;5.40;95.40
28460;DHT22;32528;45.712;9.192;2024-01-30T08:41:17;5.60;95.10
28460;DHT22;32528;45.712;9.192;2024-01-30T08:43:18;5.70;95.00
28460;DHT22;32528;45.712;9.192;2024-01-30T08:45:18;5.80;95.10
28460;DHT22;32528;45.712;9.192;2024-01-30T08:47:19;5.90;95.10
28460;DHT22;32528;45.712;9.192;2024-01-30T08:49:20;6.00;95.20
28460;DHT22;32528;45.712;9.192;2024-01-30T08:51:20;6.10;95.00
28460;DHT22;32528;45.712;9.192;2024-01-30T08:53:21;6.20;94.90
28460;DHT22;32528;45.712;9.192;2024-01-30T08:55:22;6.20;95.00
28460;DHT22;32528;45.712;9.192;2024-01-30T08:57:22;6.30;94.80
28460;DHT22;32528;45.712;9.192;2024-01-30T08:59:23;6.40;94.60
28460;DHT22;32528;45.712;9.192;2024-01-30T09:01:24;6.50;94.40
28460;DHT22;32528;45.712;9.192;2024-01-30T09:03:25;6.60;94.40
28460;DHT22;32528;45.712;9.192;2024-01-30T09:05:25;6.70;94.30
28460;DHT22;32528;45.712;9.192;2024-01-30T09:07:26;6.80;94.10
28460;DHT22;32528;45.712;9.192;2024-01-30T09:09:27;6.90;94.20
28460;DHT22;32528;45.712;9.192;2024-01-30T09:11:27;7.00;94.20
28460;DHT22;32528;45.712;9.192;2024-01-30T09:13:28;7.10;94.10
28460;DHT22;32528;45.712;9.192;2024-01-30T09:15:29;7.20;94.00
28460;DHT22;32528;45.712;9.192;2024-01-30T09:17:29;7.30;93.70
28460;DHT22;32528;45.712;9.192;2024-01-30T09:19:30;7.40;93.50
28460;DHT22;32528;45.712;9.192;2024-01-30T09:21:31;7.40;93.40
28460;DHT22;32528;45.712;9.192;2024-01-30T09:23:31;7.50;93.10
28460;DHT22;32528;45.712;9.192;2024-01-30T09:25:32;7.60;92.70
28460;DHT22;32528;45.712;9.192;2024-01-30T09:27:34;7.60;92.30
28460;DHT22;32528;45.712;9.192;2024-01-30T09:29:35;7.70;92.10
28460;DHT22;32528;45.712;9.192;2024-01-30T09:31:36;7.70;91.90
28460;DHT22;32528;45.712;9.192;2024-01-30T09:33:37;7.80;91.40
28460;DHT22;32528;45.712;9.192;2024-01-30T09:35:38;7.80;91.00
28460;DHT22;32528;45.712;9.192;2024-01-30T09:37:38;7.80;90.60
28460;DHT22;32528;45.712;9.192;2024-01-30T09:39:39;7.90;90.20
28460;DHT22;32528;45.712;9.192;2024-01-30T09:41:49;7.80;90.50
28460;DHT22;32528;45.712;9.192;2024-01-30T09:43:52;7.90;90.70
28460;DHT22;32528;45.712;9.192;2024-01-30T09:45:54;7.90;90.90
28460;DHT22;32528;45.712;9.192;2024-01-30T09:47:55;8.00;91.10
28460;DHT22;32528;45.712;9.192;2024-01-30T09:49:56;8.10;91.20
28460;DHT22;32528;45.712;9.192;2024-01-30T09:51:57;8.10;91.10
28460;DHT22;32528;45.712;9.192;2024-01-30T09:53:57;8.20;91.10
28460;DHT22;32528;45.712;9.192;2024-01-30T09:55:58;8.20;91.00
28460;DHT22;32528;45.712;9.192;2024-01-30T09:57:59;8.30;91.20
28460;DHT22;32528;45.712;9.192;2024-01-30T10:00:00;8.40;90.40
28460;DHT22;32528;45.712;9.192;2024-01-30T10:02:00;8.40;90.20
28460;DHT22;32528;45.712;9.192;2024-01-30T10:04:01;8.50;90.00
28460;DHT22;32528;45.712;9.192;2024-01-30T10:06:02;8.60;89.50
28460;DHT22;32528;45.712;9.192;2024-01-30T10:08:05;8.80;88.70
28460;DHT22;32528;45.712;9.192;2024-01-30T10:10:06;8.80;86.50
28460;DHT22;32528;45.712;9.192;2024-01-30T10:12:07;8.90;86.50
28460;DHT22;32528;45.712;9.192;2024-01-30T10:14:09;9.00;86.40
28460;DHT22;32528;45.712;9.192;2024-01-30T10:16:10;9.10;85.20
28460;DHT22;32528;45.712;9.192;2024-01-30T10:18:10;9.20;84.40
28460;DHT22;32528;45.712;9.192;2024-01-30T10:20:11;9.20;83.50
28460;DHT22;32528;45.712;9.192;2024-01-30T10:22:12;9.30;82.50
28460;DHT22;32528;45.712;9.192;2024-01-30T10:24:12;9.30;82.00
28460;DHT22;32528;45.712;9.192;2024-01-30T10:26:15;9.40;81.60
28460;DHT22;32528;45.712;9.192;2024-01-30T10:28:17;9.50;82.20
28460;DHT22;32528;45.712;9.192;2024-01-30T10:30:18;9.50;80.50
28460;DHT22;32528;45.712;9.192;2024-01-30T10:32:19;9.40;79.00
28460;DHT22;32528;45.712;9.192;2024-01-30T10:34:20;9.50;79.00
28460;DHT22;32528;45.712;9.192;2024-01-30T10:36:20;9.50;79.30
28460;DHT22;32528;45.712;9.192;2024-01-30T10:38:25;9.50;79.60
28460;DHT22;32528;45.712;9.192;2024-01-30T10:40:28;9.50;79.60
28460;DHT22;32528;45.712;9.192;2024-01-30T10:42:31;9.60;79.80
28460;DHT22;32528;45.712;9.192;2024-01-30T10:44:56;9.60;79.30
28460;DHT22;32528;45.712;9.192;2024-01-30T10:46:55;9.70;78.90
28460;DHT22;32528;45.712;9.192;2024-01-30T10:48:58;9.70;76.60
28460;DHT22;32528;45.712;9.192;2024-01-30T10:50:59;9.80;75.50
28460;DHT22;32528;45.712;9.192;2024-01-30T10:53:00;9.80;75.30
28460;DHT22;32528;45.712;9.192;2024-01-30T10:55:02;10.00;76.30
28460;DHT22;32528;45.712;9.192;2024-01-30T10:57:05;10.10;76.60
28460;DHT22;32528;45.712;9.192;2024-01-30T10:59:06;10.10;75.30
28460;DHT22;32528;45.712;9.192;2024-01-30T11:01:07;10.20;75.10
28460;DHT22;32528;45.712;9.192;2024-01-30T11:03:08;10.20;75.00
28460;DHT22;32528;45.712;9.192;2024-01-30T11:05:09;10.30;75.10
28460;DHT22;32528;45.712;9.192;2024-01-30T11:07:19;10.40;74.50
28460;DHT22;32528;45.712;9.192;2024-01-30T11:09:24;10.40;74.10
28460;DHT22;32528;45.712;9.192;2024-01-30T11:11:24;10.50;74.20
28460;DHT22;32528;45.712;9.192;2024-01-30T11:13:31;10.50;72.50
28460;DHT22;32528;45.712;9.192;2024-01-30T11:15:31;10.50;71.10
28460;DHT22;32528;45.712;9.192;2024-01-30T11:19:48;10.60;72.80
28460;DHT22;32528;45.712;9.192;2024-01-30T11:21:50;10.60;71.50
28460;DHT22;32528;45.712;9.192;2024-01-30T11:23:51;10.70;69.70
28460;DHT22;32528;45.712;9.192;2024-01-30T11:25:52;10.70;69.60
28460;DHT22;32528;45.712;9.192;2024-01-30T11:27:53;10.80;69.90
28460;DHT22;32528;45.712;9.192;2024-01-30T11:29:54;10.80;69.20
28460;DHT22;32528;45.712;9.192;2024-01-30T11:32:01;10.80;68.00
28460;DHT22;32528;45.712;9.192;2024-01-30T11:34:01;10.80;67.30
28460;DHT22;32528;45.712;9.192;2024-01-30T11:36:02;10.80;65.30
28460;DHT22;32528;45.712;9.192;2024-01-30T11:38:03;10.80;66.20
28460;DHT22;32528;45.712;9.192;2024-01-30T11:40:04;10.80;65.10
28460;DHT22;32528;45.712;9.192;2024-01-30T11:42:06;10.80;67.40
28460;DHT22;32528;45.712;9.192;2024-01-30T11:44:09;10.90;66.90
28460;DHT22;32528;45.712;9.192;2024-01-30T11:46:09;11.00;66.00
28460;DHT22;32528;45.712;9.192;2024-01-30T11:48:13;11.10;64.80
28460;DHT22;32528;45.712;9.192;2024-01-30T11:50:14;11.20;63.80
28460;DHT22;32528;45.712;9.192;2024-01-30T11:52:15;11.20;61.30
28460;DHT22;32528;45.712;9.192;2024-01-30T11:54:16;11.20;62.50
28460;DHT22;32528;45.712;9.192;2024-01-30T11:56:17;11.30;62.10
28460;DHT22;32528;45.712;9.192;2024-01-30T11:58:17;11.40;61.70
28460;DHT22;32528;45.712;9.192;2024-01-30T12:00:18;11.50;61.00
28460;DHT22;32528;45.712;9.192;2024-01-30T12:02:19;11.60;60.70
28460;DHT22;32528;45.712;9.192;2024-01-30T12:04:20;11.70;61.40
28460;DHT22;32528;45.712;9.192;2024-01-30T12:06:20;11.80;61.40
28460;DHT22;32528;45.712;9.192;2024-01-30T12:08:21;11.80;59.40
28460;DHT22;32528;45.712;9.192;2024-01-30T12:10:22;11.70;59.60
28460;DHT22;32528;45.712;9.192;2024-01-30T12:12:23;11.70;60.40
28460;DHT22;32528;45.712;9.192;2024-01-30T12:14:24;11.80;60.60
28460;DHT22;32528;45.712;9.192;2024-01-30T12:16:25;11.80;61.00
28460;DHT22;32528;45.712;9.192;2024-01-30T12:18:26;11.80;61.30
28460;DHT22;32528;45.712;9.192;2024-01-30T12:20:27;11.80;61.60
28460;DHT22;32528;45.712;9.192;2024-01-30T12:22:27;11.80;62.30
28460;DHT22;32528;45.712;9.192;2024-01-30T12:24:28;11.80;62.50
28460;DHT22;32528;45.712;9.192;2024-01-30T12:26:32;11.70;60.50
28460;DHT22;32528;45.712;9.192;2024-01-30T12:28:33;11.60;60.60
28460;DHT22;32528;45.712;9.192;2024-01-30T12:30:34;11.50;60.20
28460;DHT22;32528;45.712;9.192;2024-01-30T12:32:35;11.50;61.70
28460;DHT22;32528;45.712;9.192;2024-01-30T12:34:40;11.50;62.70
28460;DHT22;32528;45.712;9.192;2024-01-30T12:36:40;11.50;63.00
28460;DHT22;32528;45.712;9.192;2024-01-30T12:38:41;11.50;63.70
28460;DHT22;32528;45.712;9.192;2024-01-30T12:40:42;11.60;65.20
28460;DHT22;32528;45.712;9.192;2024-01-30T12:42:43;11.80;64.90
28460;DHT22;32528;45.712;9.192;2024-01-30T12:44:46;12.10;65.10
28460;DHT22;32528;45.712;9.192;2024-01-30T12:46:47;12.20;65.20
28460;DHT22;32528;45.712;9.192;2024-01-30T12:48:47;12.40;66.10
28460;DHT22;32528;45.712;9.192;2024-01-30T12:50:48;12.60;65.80
28460;DHT22;32528;45.712;9.192;2024-01-30T12:52:49;12.60;65.80
28460;DHT22;32528;45.712;9.192;2024-01-30T12:54:49;12.60;66.20
28460;DHT22;32528;45.712;9.192;2024-01-30T12:56:50;12.70;66.60